Time;durP1;ratioP1;P1;durP2;ratioP2;P2;SDS_P1;SDS_P2;PMS_P1;PMS_P2;Temp;Humidity;BMP_temperature;BMP_pressure;BME280_temperature;BME280_humidity;BME280_pressure;Samples;Min_cycle;Max_cycle;Signal;HPM_P1;HPM_P2
2022/07/04 00:02:19;;;;;;;6.18;3.03;;;;;;;9.75;96.65;101862.84;10486867;28;20037;-77
2022/07/04 00:07:19;;;;;;;5.72;2.70;;;;;;;9.77;97.55;101860.31;10482445;28;20554;-76
2022/07/04 00:12:20;;;;;;;6.57;2.53;;;;;;;9.74;97.76;101854.88;10458483;28;20068;-76
2022/07/04 00:17:20;;;;;;;8.10;3.92;;;;;;;9.60;97.79;101849.63;10441312;28;20033;-76
2022/07/04 00:22:21;;;;;;;8.25;3.33;;;;;;;9.47;97.85;101855.75;10480776;28;20269;-76
2022/07/04 00:27:21;;;;;;;10.70;3.80;;;;;;;9.47;98.43;101860.97;10523919;28;20044;-76
2022/07/04 00:32:22;;;;;;;8.80;4.30;;;;;;;9.48;98.64;101849.72;10504389;28;20270;-76
2022/07/04 00:37:22;;;;;;;6.13;3.55;;;;;;;9.33;98.52;101851.28;10465507;28;20036;-76
2022/07/04 00:42:23;;;;;;;7.20;4.68;;;;;;;9.22;98.86;101845.31;10538001;28;20147;-76
2022/07/04 00:47:23;;;;;;;8.82;4.85;;;;;;;9.18;99.08;101844.22;10532570;28;20047;-76
2022/07/04 00:52:24;;;;;;;15.70;5.40;;;;;;;9.05;99.15;101839.81;10509463;28;20066;-76
2022/07/04 00:57:24;;;;;;;8.95;6.25;;;;;;;8.99;99.60;101847.22;10488817;28;20033;-76
2022/07/04 01:02:25;;;;;;;6.85;4.40;;;;;;;8.99;100.00;101847.22;10496520;28;20060;-76
2022/07/04 01:07:26;;;;;;;5.93;3.78;;;;;;;8.95;99.83;101840.00;10530892;28;20078;-76
2022/07/04 01:12:27;;;;;;;7.20;4.47;;;;;;;8.79;99.67;101838.03;10520439;28;20128;-77
2022/07/04 01:17:28;;;;;;;6.50;4.60;;;;;;;8.69;99.98;101835.56;10514002;28;20467;-76
2022/07/04 01:22:28;;;;;;;6.95;4.35;;;;;;;8.58;100.00;101832.16;10503771;28;20113;-76
2022/07/04 01:27:29;;;;;;;7.47;4.60;;;;;;;8.53;100.00;101826.63;10487999;28;20036;-77
2022/07/04 01:32:29;;;;;;;9.60;6.32;;;;;;;8.46;100.00;101825.25;10518270;28;20051;-76
2022/07/04 01:37:30;;;;;;;15.38;6.00;;;;;;;8.40;100.00;101821.31;10511623;28;20123;-77
2022/07/04 01:42:30;;;;;;;8.75;5.43;;;;;;;8.27;100.00;101828.25;10519534;27;20121;-76
2022/07/04 01:47:31;;;;;;;9.98;6.95;;;;;;;8.25;100.00;101816.78;10512291;28;20416;-77
2022/07/04 01:52:31;;;;;;;9.25;5.93;;;;;;;8.28;100.00;101806.59;10442440;28;20033;-76
2022/07/04 01:57:32;;;;;;;10.15;7.00;;;;;;;8.19;100.00;101811.13;10496655;28;20376;-76
2022/07/04 02:02:32;;;;;;;13.75;7.45;;;;;;;8.12;100.00;101814.97;10519896;28;20071;-76
2022/07/04 02:07:33;;;;;;;11.52;6.85;;;;;;;8.17;100.00;101813.63;10497777;28;20463;-77
2022/07/04 02:17:52;;;;;;;16.00;6.00;;;;;;;8.22;100.00;101819.19;10472645;28;20036;-76
2022/07/04 02:22:53;;;;;;;10.63;5.80;;;;;;;8.22;100.00;101829.63;10504693;28;20032;-76
2022/07/04 02:27:54;;;;;;;9.57;6.10;;;;;;;8.23;100.00;101834.94;10528243;28;20036;-76
2022/07/04 02:32:54;;;;;;;7.47;5.65;;;;;;;8.20;100.00;101834.72;10500009;28;20032;-76
2022/07/04 02:37:55;;;;;;;8.02;5.20;;;;;;;8.19;100.00;101847.66;10527128;28;20046;-76
2022/07/04 02:42:55;;;;;;;6.60;5.20;;;;;;;8.14;100.00;101842.06;10450326;28;20145;-77
2022/07/04 02:47:56;;;;;;;8.77;5.30;;;;;;;8.12;100.00;101845.38;10445254;28;20116;-76
2022/07/04 02:52:56;;;;;;;10.18;6.25;;;;;;;8.12;100.00;101850.59;10520526;28;20472;-76
2022/07/04 02:57:57;;;;;;;8.10;5.13;;;;;;;8.08;100.00;101863.41;10508668;28;20028;-76
2022/07/04 03:02:57;;;;;;;11.32;6.43;;;;;;;8.10;100.00;101873.06;10489943;28;20381;-76
2022/07/04 03:07:58;;;;;;;9.30;5.60;;;;;;;8.11;100.00;101886.19;10467376;28;20044;-77
2022/07/04 03:12:58;;;;;;;10.35;5.90;;;;;;;8.08;100.00;101875.53;10520285;28;20123;-76
2022/07/04 03:17:59;;;;;;;8.52;4.68;;;;;;;8.10;100.00;101879.16;10527275;28;20395;-76
2022/07/04 03:22:59;;;;;;;12.23;5.85;;;;;;;8.13;100.00;101884.59;10489359;28;20036;-76
2022/07/04 03:28:00;;;;;;;10.65;5.45;;;;;;;8.23;100.00;101884.47;10466267;28;20115;-76
2022/07/04 03:33:01;;;;;;;12.18;6.13;;;;;;;8.25;100.00;101888.91;10520376;28;20039;-76
2022/07/04 03:38:01;;;;;;;6.88;5.05;;;;;;;8.32;100.00;101896.38;10500217;28;20058;-76
2022/07/04 03:43:02;;;;;;;9.43;4.72;;;;;;;8.42;100.00;101892.75;10491446;28;20468;-76
2022/07/04 03:48:03;;;;;;;10.02;5.47;;;;;;;8.46;100.00;101902.63;10524302;28;20036;-77
2022/07/04 03:53:04;;;;;;;8.52;5.85;;;;;;;8.50;100.00;101902.97;10507395;28;20554;-77
2022/07/04 03:58:05;;;;;;;9.85;5.30;;;;;;;8.56;100.00;101893.78;10516804;28;20585;-76
2022/07/04 04:05:26;;;;;;;9.15;6.55;;;;;;;8.62;100.00;101891.63;10424758;28;20052;-76
2022/07/04 04:08:26;;;;;;;13.32;8.77;;;;;;;8.70;100.00;101887.84;10441742;28;20041;-76
2022/07/04 04:13:26;;;;;;;7.00;4.88;;;;;;;8.79;100.00;101895.44;10424884;28;20131;-76
2022/07/04 04:18:27;;;;;;;8.38;5.90;;;;;;;8.83;100.00;101894.88;10448840;28;20055;-76
2022/07/04 04:23:27;;;;;;;10.35;6.05;;;;;;;8.85;100.00;101901.09;10450291;28;20037;-75
2022/07/04 04:28:28;;;;;;;10.05;5.55;;;;;;;9.13;100.00;101903.06;10458668;28;20035;-77
2022/07/04 04:33:28;;;;;;;9.10;4.68;;;;;;;9.60;100.00;101907.13;10465907;28;20127;-76
2022/07/04 04:38:29;;;;;;;8.25;5.22;;;;;;;9.93;100.00;101912.81;10452199;28;20484;-76
2022/07/04 04:43:29;;;;;;;7.95;5.60;;;;;;;10.44;100.00;101928.38;10451433;28;20491;-75
2022/07/04 04:48:30;;;;;;;7.10;4.18;;;;;;;10.68;100.00;101922.91;10452350;28;20552;-75
2022/07/04 04:53:31;;;;;;;7.82;4.25;;;;;;;10.77;100.00;101923.50;10486257;28;20128;-75
2022/07/04 04:58:31;;;;;;;5.55;4.00;;;;;;;10.96;100.00;101927.28;10498719;28;20120;-76
2022/07/04 05:03:32;;;;;;;5.35;3.15;;;;;;;11.30;100.00;101927.69;10474738;28;20037;-78
2022/07/04 05:08:32;;;;;;;5.15;3.33;;;;;;;11.90;99.54;101924.25;10448900;28;20056;-74
2022/07/04 05:13:33;;;;;;;5.55;3.10;;;;;;;12.31;93.71;101920.53;10522479;28;20120;-76
2022/07/04 05:18:34;;;;;;;4.78;2.28;;;;;;;12.92;90.16;101919.53;10471196;28;20048;-76
2022/07/04 05:23:34;;;;;;;5.38;2.53;;;;;;;13.56;88.61;101919.41;10488387;28;20032;-76
2022/07/04 05:28:40;;;;;;;4.65;2.20;;;;;;;14.27;85.36;101916.84;10469355;28;20047;-76
2022/07/04 05:33:41;;;;;;;3.28;2.00;;;;;;;15.22;82.51;101916.94;10470473;28;20503;-78
2022/07/04 05:38:41;;;;;;;2.80;1.88;;;;;;;16.00;80.12;101906.28;10481154;28;20075;-77
2022/07/04 05:43:42;;;;;;;8.18;5.13;;;;;;;16.82;76.62;101895.44;10527379;28;20383;-77
2022/07/04 05:48:42;;;;;;;4.43;2.10;;;;;;;17.72;73.06;101897.78;10467677;28;20131;-77
2022/07/04 05:53:43;;;;;;;7.00;2.10;;;;;;;18.28;70.03;101900.59;10487855;28;20492;-77
2022/07/04 05:58:43;;;;;;;2.70;2.20;;;;;;;19.10;68.09;101893.34;10485398;28;20036;-77
2022/07/04 06:03:44;;;;;;;9.70;4.20;;;;;;;19.76;64.41;101875.66;10474108;28;20044;-77
2022/07/04 06:08:44;;;;;;;4.47;2.17;;;;;;;20.70;63.08;101874.34;10482324;28;20078;-76
2022/07/04 06:13:45;;;;;;;4.30;1.30;;;;;;;21.51;58.84;101879.56;10499927;28;20504;-76
2022/07/04 06:18:45;;;;;;;7.00;2.80;;;;;;;22.00;56.26;101870.66;10485138;28;20040;-77
2022/07/04 06:23:46;;;;;;;4.47;2.60;;;;;;;22.71;55.13;101874.38;10492273;28;20506;-76
2022/07/04 06:28:46;;;;;;;4.67;2.07;;;;;;;23.16;50.81;101871.38;10476655;28;20033;-78
2022/07/04 06:39:06;;;;;;;9.52;2.15;;;;;;;23.25;51.98;101883.94;10459920;28;20041;-76
2022/07/04 06:44:06;;;;;;;5.10;1.57;;;;;;;23.82;48.34;101900.56;10443015;28;20037;-76
2022/07/04 06:49:07;;;;;;;4.60;1.57;;;;;;;23.33;50.03;101890.25;10451550;28;20033;-75
2022/07/04 06:54:07;;;;;;;12.10;6.50;;;;;;;23.85;48.38;101892.56;10443162;28;20366;-76
2022/07/04 06:59:08;;;;;;;13.90;9.20;;;;;;;24.22;46.43;101900.00;10446459;28;20045;-76
2022/07/04 07:04:09;;;;;;;9.17;5.53;;;;;;;24.17;45.85;101891.97;10464430;28;20044;-76
2022/07/04 07:09:09;;;;;;;6.40;1.80;;;;;;;24.62;46.66;101894.03;10444101;28;20040;-76
2022/07/04 07:14:10;;;;;;;8.77;3.53;;;;;;;24.89;46.96;101895.97;10479205;28;20063;-76
2022/07/04 07:19:10;;;;;;;7.23;2.93;;;;;;;24.68;45.25;101895.81;10468044;28;20693;-75
2022/07/04 07:24:11;;;;;;;6.17;2.40;;;;;;;25.00;45.20;101892.44;10460852;28;20048;-75
2022/07/04 07:29:11;;;;;;;7.73;2.83;;;;;;;24.77;44.43;101893.22;10444728;28;20073;-75
2022/07/04 07:34:12;;;;;;;6.67;2.10;;;;;;;25.20;44.53;101889.84;10474255;28;20494;-76
2022/07/04 07:39:12;;;;;;;4.87;2.77;;;;;;;25.32;44.40;101883.59;10443955;28;20049;-75
2022/07/04 07:44:13;;;;;;;7.93;3.03;;;;;;;25.20;43.73;101877.31;10441176;28;20101;-76
2022/07/04 07:49:14;;;;;;;5.00;2.50;;;;;;;25.36;43.41;101886.31;10454482;28;20033;-75
2022/07/04 07:54:16;;;;;;;4.20;2.00;;;;;;;25.68;43.08;101891.75;10442214;28;20037;-75
2022/07/04 07:59:17;;;;;;;14.30;2.42;;;;;;;25.98;42.82;101881.91;10460050;28;20052;-74
2022/07/04 08:04:37;;;;;;;4.37;1.77;;;;;;;26.35;42.12;101874.72;10479250;28;20067;-75
2022/07/04 08:09:37;;;;;;;22.35;17.55;;;;;;;26.13;41.30;101867.56;10471295;28;20047;-75
2022/07/04 08:14:40;;;;;;;6.87;3.47;;;;;;;27.19;40.23;101863.66;10505019;28;20044;-75
2022/07/04 08:19:41;;;;;;;3.63;1.63;;;;;;;27.74;36.90;101871.41;10494671;28;20067;-74
2022/07/04 08:24:42;;;;;;;6.22;3.08;;;;;;;27.79;37.58;101874.94;10460315;28;20120;-76
2022/07/04 08:29:42;;;;;;;18.20;2.60;;;;;;;26.97;37.98;101874.53;10466895;28;20127;-76
2022/07/04 08:34:43;;;;;;;3.25;0.95;;;;;;;26.97;38.73;101865.59;10464204;28;20064;-76
2022/07/04 08:39:44;;;;;;;4.10;1.50;;;;;;;27.87;39.06;101864.09;10479046;28;20041;-76
2022/07/04 08:44:49;;;;;;;6.53;2.00;;;;;;;28.17;36.70;101862.03;10524116;28;20036;-76
2022/07/04 08:50:04;;;;;;;5.45;1.60;;;;;;;27.78;37.39;101852.50;10473893;28;20736;-76
2022/07/04 09:00:27;;;;;;;4.18;1.08;;;;;;;28.58;34.75;101855.31;10508312;28;20037;-77
2022/07/04 09:05:28;;;;;;;6.13;1.95;;;;;;;29.20;35.00;101853.63;10514899;28;20032;-78
2022/07/04 09:10:29;;;;;;;3.72;1.05;;;;;;;29.08;36.02;101866.38;10492302;28;20045;-78
2022/07/04 09:15:29;;;;;;;116.00;89.78;;;;;;;29.53;33.73;101863.03;10482802;28;20499;-77
2022/07/04 09:20:31;;;;;;;6.90;2.67;;;;;;;28.91;33.85;101866.59;10486687;28;20060;-78
2022/07/04 09:25:31;;;;;;;5.90;2.95;;;;;;;28.88;34.06;101871.16;10475437;28;20044;-76
2022/07/04 09:30:32;;;;;;;7.93;3.37;;;;;;;28.30;36.14;101869.09;10449165;28;20503;-76
2022/07/04 09:35:34;;;;;;;3.07;1.63;;;;;;;28.57;35.65;101864.28;10446031;28;20053;-76
2022/07/04 09:46:00;;;;;;;3.28;1.42;;;;;;;29.63;32.53;101873.66;10487347;28;20033;-74
2022/07/04 09:51:01;;;;;;;4.30;1.17;;;;;;;30.29;32.19;101869.81;10499381;28;20678;-75
2022/07/04 09:56:01;;;;;;;4.32;1.30;;;;;;;29.27;32.66;101864.28;10517398;28;20031;-76
2022/07/04 10:01:03;;;;;;;4.85;1.40;;;;;;;29.78;33.66;101864.44;10497254;28;20102;-75
2022/07/04 10:06:05;;;;;;;3.08;1.13;;;;;;;29.93;34.79;101856.06;10502021;28;20147;-74
2022/07/04 10:11:07;;;;;;;2.38;1.08;;;;;;;29.55;33.11;101866.59;10522216;28;20040;-75
2022/07/04 10:16:11;;;;;;;5.88;1.90;;;;;;;29.76;32.82;101848.25;10486534;28;20471;-76
2022/07/04 10:21:11;;;;;;;6.13;1.33;;;;;;;29.14;34.37;101851.91;10491337;28;20559;-75
2022/07/04 10:26:12;;;;;;;2.70;1.10;;;;;;;28.77;34.69;101849.72;10435062;28;20049;-74
2022/07/04 10:31:13;;;;;;;3.87;1.03;;;;;;;28.85;31.10;101848.72;10415084;28;20275;-76
2022/07/04 10:36:17;;;;;;;3.35;1.10;;;;;;;29.42;31.61;101840.72;10430104;28;20476;-73
2022/07/04 10:41:22;;;;;;;3.65;1.48;;;;;;;30.27;32.37;101839.28;10494082;28;20743;-75
2022/07/04 10:46:26;;;;;;;3.88;2.05;;;;;;;30.57;31.03;101834.16;10486240;28;20033;-75
2022/07/04 10:51:49;;;;;;;2.13;1.00;;;;;;;30.46;31.01;101828.09;10480118;28;20052;-73
2022/07/04 10:56:57;;;;;;;8.23;1.95;;;;;;;28.41;34.26;101828.59;10516108;28;20117;-74
2022/07/04 11:02:06;;;;;;;3.25;2.05;;;;;;;30.30;30.56;101824.81;10492355;28;20442;-75
2022/07/04 11:07:07;;;;;;;3.38;1.75;;;;;;;29.40;36.69;101818.28;10489138;28;20048;-76
2022/07/04 11:12:07;;;;;;;6.20;2.08;;;;;;;30.46;31.29;101801.97;10451386;28;20037;-75
2022/07/04 11:17:09;;;;;;;10.37;5.87;;;;;;;30.96;29.97;101805.44;10510178;28;20044;-76
2022/07/04 11:22:10;;;;;;;2.65;1.50;;;;;;;26.95;33.68;101797.56;10486914;28;20545;-75
2022/07/04 11:27:11;;;;;;;6.15;4.28;;;;;;;28.65;33.35;101783.44;10483216;28;20036;-76
2022/07/04 11:32:11;;;;;;;2.30;1.10;;;;;;;26.83;34.91;101795.81;10501100;28;20111;-75
2022/07/04 11:37:12;;;;;;;2.97;1.10;;;;;;;27.40;33.30;101784.72;10506658;28;20029;-76
2022/07/04 11:47:36;;;;;;;3.53;1.02;;;;;;;29.73;33.01;101781.78;10497068;28;20481;-76
2022/07/04 11:52:36;;;;;;;4.22;1.13;;;;;;;30.21;31.70;101781.81;10465393;28;20041;-76
2022/07/04 11:57:39;;;;;;;4.00;1.40;;;;;;;30.29;30.10;101775.34;10482346;28;20059;-75
2022/07/04 12:02:39;;;;;;;1.13;0.75;;;;;;;30.89;30.70;101772.25;10481570;28;20074;-76
2022/07/04 12:07:41;;;;;;;1.63;0.75;;;;;;;28.50;31.55;101774.66;10464531;28;20113;-75
2022/07/04 12:12:52;;;;;;;3.45;1.20;;;;;;;26.60;35.17;101780.69;10481323;28;20062;-76
2022/07/04 12:17:55;;;;;;;2.58;0.98;;;;;;;28.30;32.62;101769.50;10493605;28;20046;-75
2022/07/04 12:22:59;;;;;;;2.90;1.02;;;;;;;27.05;37.92;101777.81;10431325;28;20547;-76
2022/07/04 12:28:02;;;;;;;3.90;1.20;;;;;;;27.48;35.94;101768.50;10470820;28;20029;-76
2022/07/04 12:33:07;;;;;;;6.35;3.65;;;;;;;29.39;33.73;101770.69;10439598;28;20133;-76
2022/07/04 12:38:17;;;;;;;6.55;1.50;;;;;;;29.86;32.40;101762.66;10410932;28;20057;-77
2022/07/04 12:43:17;;;;;;;3.05;1.58;;;;;;;27.90;34.72;101761.84;10418432;28;20045;-75
2022/07/04 12:48:23;;;;;;;4.30;0.97;;;;;;;28.72;33.66;101755.50;10404615;28;20048;-74
2022/07/04 12:53:24;;;;;;;3.47;1.02;;;;;;;30.15;31.08;101755.84;10421619;28;20052;-75
2022/07/04 12:58:24;;;;;;;5.20;1.20;;;;;;;27.89;34.83;101755.59;10451886;28;20041;-76
2022/07/04 13:03:25;;;;;;;4.17;0.73;;;;;;;26.05;36.91;101758.53;10478916;28;20531;-75
2022/07/04 13:08:25;;;;;;;4.50;1.03;;;;;;;25.05;41.19;101767.47;10485824;28;20036;-75
2022/07/04 13:13:26;;;;;;;1.57;1.03;;;;;;;25.19;40.38;101765.72;10488325;28;20044;-76
2022/07/04 13:18:26;;;;;;;7.17;2.07;;;;;;;25.45;40.56;101769.34;10488908;28;20109;-76
2022/07/04 13:23:27;;;;;;;3.77;1.70;;;;;;;25.56;37.68;101758.59;10486963;28;20064;-76
2022/07/04 13:28:27;;;;;;;2.40;0.90;;;;;;;24.88;41.26;101757.63;10488361;28;20083;-75
2022/07/04 13:33:28;;;;;;;4.20;0.90;;;;;;;24.48;42.18;101758.38;10488497;28;20033;-75
2022/07/04 13:38:28;;;;;;;4.07;1.30;;;;;;;24.56;40.10;101761.06;10488373;28;20032;-75
2022/07/04 13:43:29;;;;;;;4.73;1.53;;;;;;;24.73;40.91;101760.28;10486488;28;20059;-75
2022/07/04 13:48:30;;;;;;;26.43;23.57;;;;;;;25.49;39.33;101758.59;10486029;28;20179;-76
2022/07/04 13:53:33;;;;;;;5.97;4.90;;;;;;;26.73;36.39;101751.09;10487046;28;20116;-75
2022/07/04 13:58:33;;;;;;;4.47;1.38;;;;;;;27.73;34.36;101737.84;10480238;28;20485;-77
2022/07/04 14:03:34;;;;;;;11.07;8.23;;;;;;;28.16;33.21;101744.56;10445818;28;20036;-77
2022/07/04 14:08:34;;;;;;;12.57;5.30;;;;;;;26.19;36.21;101754.94;10446894;28;20124;-76
2022/07/04 14:13:35;;;;;;;22.87;18.73;;;;;;;25.29;40.31;101746.97;10445054;28;20048;-76
2022/07/04 14:18:35;;;;;;;9.60;2.40;;;;;;;25.02;39.45;101746.06;10469060;28;20094;-77
2022/07/04 14:23:42;;;;;;;7.43;2.60;;;;;;;24.88;41.47;101748.72;10433902;28;20151;-77
2022/07/04 14:28:44;;;;;;;6.22;1.60;;;;;;;24.90;39.50;101739.78;10470461;28;20036;-75
2022/07/04 14:33:44;;;;;;;3.20;0.98;;;;;;;26.20;40.60;101737.94;10498093;28;20040;-77
2022/07/04 14:38:45;;;;;;;3.77;1.30;;;;;;;26.46;37.31;101736.94;10520258;28;20095;-77
2022/07/04 14:43:45;;;;;;;4.43;1.60;;;;;;;26.08;37.82;101736.19;10485588;28;20028;-78
2022/07/04 14:48:46;;;;;;;4.57;1.10;;;;;;;26.22;40.90;101734.38;10490240;28;20062;-77
2022/07/04 14:53:46;;;;;;;4.53;1.97;;;;;;;26.71;39.49;101735.03;10524279;28;20052;-77
2022/07/04 14:58:47;;;;;;;1.80;0.90;;;;;;;27.13;36.52;101725.81;10490990;28;20156;-77
2022/07/04 15:03:47;;;;;;;3.93;1.80;;;;;;;26.53;37.19;101718.13;10480709;28;20029;-77
2022/07/04 15:08:48;;;;;;;3.37;2.07;;;;;;;25.60;38.83;101714.81;10483645;28;20073;-77
2022/07/04 15:13:49;;;;;;;5.83;1.67;;;;;;;24.43;40.87;101713.75;10466008;28;20131;-77
2022/07/04 15:18:50;;;;;;;7.50;2.60;;;;;;;24.08;42.78;101695.78;10483155;28;20048;-78
2022/07/04 15:29:10;;;;;;;2.42;1.33;;;;;;;24.03;41.54;101693.13;10504812;28;20119;-76
2022/07/04 15:34:11;;;;;;;5.30;1.40;;;;;;;23.51;42.51;101693.66;10477429;28;20048;-76
2022/07/04 15:39:15;;;;;;;;;;;;;;;23.86;42.71;101695.66;10500140;28;20036;-77
2022/07/04 15:44:16;;;;;;;3.40;2.20;;;;;;;23.27;42.80;101705.94;10479356;28;20481;-76
2022/07/04 15:49:17;;;;;;;1.88;1.15;;;;;;;23.46;40.27;101690.97;10482997;28;20039;-77
2022/07/04 15:54:20;;;;;;;3.17;1.33;;;;;;;23.58;42.48;101684.78;10461133;28;20028;-77
2022/07/04 15:59:20;;;;;;;3.45;1.30;;;;;;;23.37;42.32;101677.53;10491900;28;20075;-77
2022/07/04 16:04:21;;;;;;;3.90;1.00;;;;;;;22.62;45.95;101690.19;10478284;28;20769;-77
2022/07/04 16:09:22;;;;;;;4.33;1.70;;;;;;;22.89;46.45;101672.66;10460533;28;20123;-80
2022/07/04 16:14:23;;;;;;;3.47;1.50;;;;;;;23.23;43.48;101677.38;10480462;28;20032;-78
2022/07/04 16:19:24;;;;;;;5.30;1.40;;;;;;;23.02;47.10;101673.66;10500884;28;20067;-77
2022/07/04 16:24:24;;;;;;;17.83;12.27;;;;;;;23.17;43.52;101671.13;10470245;28;20036;-77
2022/07/04 16:29:25;;;;;;;5.90;4.00;;;;;;;23.15;44.69;101667.53;10435326;28;20090;-76
2022/07/04 16:34:26;;;;;;;2.70;1.63;;;;;;;22.55;44.50;101675.00;10444543;28;20041;-78
2022/07/04 16:39:26;;;;;;;4.37;1.60;;;;;;;22.07;48.55;101666.41;10449573;28;20064;-77
2022/07/04 16:44:27;;;;;;;8.35;1.50;;;;;;;22.10;47.19;101661.09;10453184;28;20045;-81
2022/07/04 16:49:27;;;;;;;11.18;3.72;;;;;;;22.15;45.28;101668.28;10445875;28;20073;-80
2022/07/04 16:54:28;;;;;;;4.22;1.77;;;;;;;21.93;47.74;101663.56;10428151;28;20450;-78
2022/07/04 16:59:28;;;;;;;4.57;1.83;;;;;;;21.71;48.31;101666.81;10451481;28;20033;-77
2022/07/04 17:04:29;;;;;;;5.53;1.67;;;;;;;22.21;45.74;101664.78;10470932;28;20574;-77
2022/07/04 17:09:29;;;;;;;5.15;1.92;;;;;;;22.71;43.67;101660.94;10454286;28;20064;-77
2022/07/04 17:14:30;;;;;;;7.10;2.50;;;;;;;22.96;47.16;101662.94;10453294;28;20089;-76
2022/07/04 17:19:30;;;;;;;5.97;2.10;;;;;;;22.61;48.42;101663.47;10455487;28;20055;-77
2022/07/04 17:24:31;;;;;;;3.20;1.57;;;;;;;22.09;46.55;101669.97;10443922;28;20033;-76
2022/07/04 17:29:31;;;;;;;2.97;1.50;;;;;;;21.85;49.45;101667.03;10457517;28;20041;-77
2022/07/04 17:34:32;;;;;;;2.60;1.60;;;;;;;21.84;50.06;101662.56;10444839;28;20041;-76
2022/07/04 17:39:33;;;;;;;10.35;3.05;;;;;;;21.79;51.41;101668.69;10453124;28;20045;-77
2022/07/04 17:44:33;;;;;;;4.07;1.50;;;;;;;21.55;52.90;101679.00;10484865;28;20035;-77
2022/07/04 17:49:34;;;;;;;6.72;2.80;;;;;;;21.40;50.93;101674.31;10514098;28;20115;-77
2022/07/04 17:54:35;;;;;;;5.43;3.08;;;;;;;21.68;49.77;101676.56;10521313;28;20063;-77
2022/07/04 17:59:35;;;;;;;5.53;2.77;;;;;;;21.91;49.35;101668.88;10511263;28;20040;-77
2022/07/04 18:04:36;;;;;;;5.78;2.90;;;;;;;22.25;49.02;101666.63;10527181;28;20116;-77
2022/07/04 18:09:36;;;;;;;8.27;3.78;;;;;;;22.28;48.85;101669.31;10528732;28;20059;-77
2022/07/04 18:14:37;;;;;;;7.28;3.30;;;;;;;21.78;51.87;101666.91;10529173;28;20121;-77
2022/07/04 18:19:38;;;;;;;4.25;3.08;;;;;;;21.31;52.61;101681.28;10526573;28;20036;-77
2022/07/04 18:24:38;;;;;;;7.25;2.97;;;;;;;20.85;52.56;101676.97;10507773;28;20063;-77
2022/07/04 18:29:39;;;;;;;10.80;5.15;;;;;;;20.59;53.48;101684.41;10528656;28;20054;-78
2022/07/04 18:34:39;;;;;;;5.88;3.47;;;;;;;20.36;55.45;101683.09;10526975;28;20036;-79
2022/07/04 18:39:40;;;;;;;11.80;9.30;;;;;;;20.14;56.73;101681.75;10524511;28;20036;-77
2022/07/04 18:44:40;;;;;;;71.10;54.60;;;;;;;19.86;58.23;101694.41;10492592;28;20128;-77
2022/07/04 18:49:42;;;;;;;28.05;24.85;;;;;;;19.56;60.18;101694.59;10483751;28;20063;-77
2022/07/04 18:54:42;;;;;;;52.20;42.83;;;;;;;19.27;60.86;101703.63;10484668;28;20041;-77
2022/07/04 18:59:44;;;;;;;38.90;34.00;;;;;;;19.12;61.71;101712.13;10483328;28;20194;-77
2022/07/04 19:04:44;;;;;;;8.77;4.97;;;;;;;18.93;63.53;101710.69;10483885;28;20124;-77
2022/07/04 19:09:45;;;;;;;7.60;4.13;;;;;;;18.58;66.98;101715.94;10482625;28;20045;-77
2022/07/04 19:14:45;;;;;;;5.68;4.13;;;;;;;18.28;68.09;101716.84;10482917;28;20075;-77
2022/07/04 19:19:46;;;;;;;6.68;3.78;;;;;;;18.09;69.81;101720.72;10482467;28;20499;-77
2022/07/04 19:24:46;;;;;;;5.45;4.13;;;;;;;18.04;70.70;101728.50;10504587;28;20040;-76
2022/07/04 19:29:47;;;;;;;5.72;3.97;;;;;;;18.01;70.76;101734.63;10494344;28;20436;-77
2022/07/04 19:34:48;;;;;;;9.07;4.15;;;;;;;17.91;70.02;101740.44;10472535;28;20043;-77
2022/07/04 19:39:48;;;;;;;5.78;4.72;;;;;;;17.68;70.25;101753.84;10494778;28;20066;-77
2022/07/04 19:44:49;;;;;;;7.95;5.60;;;;;;;17.41;71.75;101757.38;10497068;28;20041;-76
2022/07/04 19:49:51;;;;;;;7.80;6.77;;;;;;;17.25;72.37;101769.16;10445544;28;20120;-76
2022/07/04 19:54:51;;;;;;;7.90;5.72;;;;;;;17.09;72.58;101772.13;10447612;28;20137;-76
2022/07/04 19:59:52;;;;;;;7.28;4.82;;;;;;;17.02;73.03;101774.56;10442298;28;20492;-76
2022/07/04 20:04:53;;;;;;;6.90;5.22;;;;;;;16.84;73.58;101780.06;10443276;28;20548;-76
2022/07/04 20:09:53;;;;;;;8.73;4.90;;;;;;;16.69;74.02;101796.25;10424391;28;20037;-76
2022/07/04 20:14:54;;;;;;;7.88;4.07;;;;;;;16.54;74.18;101809.78;10448744;28;20036;-76
2022/07/04 20:19:55;;;;;;;10.77;6.53;;;;;;;16.39;74.74;101820.66;10481164;28;20037;-76
2022/07/04 20:24:56;;;;;;;7.87;4.37;;;;;;;16.41;74.36;101836.59;10454879;28;20057;-76
2022/07/04 20:29:57;;;;;;;7.70;4.75;;;;;;;16.38;74.05;101840.00;10423762;28;20419;-76
2022/07/04 20:34:59;;;;;;;6.28;5.18;;;;;;;16.39;73.92;101847.06;10442425;28;20136;-76
2022/07/04 20:39:59;;;;;;;6.22;4.53;;;;;;;16.25;74.28;101858.84;10439684;28;20037;-76
2022/07/04 20:45:00;;;;;;;9.75;4.60;;;;;;;15.99;75.51;101858.66;10461943;28;20044;-76
2022/07/04 20:50:02;;;;;;;9.90;5.22;;;;;;;15.78;76.42;101867.47;10448131;28;20101;-77
2022/07/04 20:55:03;;;;;;;;;;;;;;;15.67;77.38;101874.03;10466759;28;20040;-76
2022/07/04 21:00:04;;;;;;;6.95;5.45;;;;;;;15.46;78.49;101868.75;10450276;28;19920;-76
2022/07/04 21:05:05;;;;;;;8.30;4.63;;;;;;;15.26;79.21;101872.28;10447856;28;20114;-76
2022/07/04 21:10:06;;;;;;;10.40;3.97;;;;;;;15.13;79.70;101875.22;10463475;28;20119;-77
2022/07/04 21:15:07;;;;;;;7.38;3.85;;;;;;;14.97;80.07;101877.16;10445487;28;20033;-77
2022/07/04 21:20:08;;;;;;;7.13;4.60;;;;;;;14.89;80.70;101881.16;10447274;28;20116;-77
2022/07/04 21:25:09;;;;;;;6.18;3.67;;;;;;;14.74;82.17;101877.81;10479107;28;20029;-77
2022/07/04 21:30:10;;;;;;;7.47;3.95;;;;;;;14.78;83.94;101879.75;10447870;28;20041;-77
2022/07/04 21:35:10;;;;;;;6.15;4.10;;;;;;;14.80;85.11;101884.28;10446152;28;20485;-77
2022/07/04 21:40:11;;;;;;;6.82;3.60;;;;;;;14.79;85.80;101882.50;10430216;28;20037;-76
2022/07/04 21:45:12;;;;;;;6.95;4.13;;;;;;;14.71;85.65;101889.13;10444292;28;20041;-77
2022/07/04 21:50:12;;;;;;;8.38;5.63;;;;;;;14.50;85.47;101891.59;10445386;28;20063;-78
2022/07/04 21:55:14;;;;;;;14.40;4.68;;;;;;;14.35;85.19;101900.56;10444970;28;20155;-76
2022/07/04 22:00:14;;;;;;;7.88;5.05;;;;;;;14.24;85.62;101905.31;10445604;28;20480;-77
2022/07/04 22:05:15;;;;;;;6.95;3.88;;;;;;;14.19;86.17;101903.28;10445744;28;20040;-76
2022/07/04 22:10:15;;;;;;;8.50;4.95;;;;;;;14.07;86.42;101911.47;10445606;28;20049;-76
2022/07/04 22:15:16;;;;;;;6.22;4.97;;;;;;;13.91;86.50;101902.81;10444372;28;20036;-76
2022/07/04 22:20:16;;;;;;;8.95;4.25;;;;;;;13.77;87.35;101906.47;10443818;28;20029;-77
2022/07/04 22:25:17;;;;;;;6.03;5.18;;;;;;;13.65;88.33;101919.88;10425897;28;20033;-77
2022/07/04 22:30:17;;;;;;;7.60;5.25;;;;;;;13.57;88.90;101913.31;10428089;28;20123;-77
2022/07/04 22:35:18;;;;;;;8.98;5.07;;;;;;;13.48;88.90;101925.16;10442287;28;20041;-77
2022/07/04 22:40:18;;;;;;;7.20;4.00;;;;;;;13.47;89.53;101920.72;10410534;28;20106;-77
2022/07/04 22:45:19;;;;;;;8.02;4.53;;;;;;;13.43;90.18;101918.75;10442310;28;20040;-77
2022/07/04 22:50:19;;;;;;;5.82;4.13;;;;;;;13.40;91.31;101920.31;10443783;28;20041;-77
2022/07/04 22:55:20;;;;;;;5.47;4.35;;;;;;;13.42;92.01;101926.59;10441688;28;20485;-77
2022/07/04 23:00:20;;;;;;;9.00;5.35;;;;;;;13.46;91.78;101932.06;10442774;28;20075;-77
2022/07/04 23:05:21;;;;;;;9.23;5.57;;;;;;;13.56;90.91;101941.38;10442858;28;20078;-77
2022/07/04 23:10:21;;;;;;;11.63;6.45;;;;;;;13.86;88.90;101937.59;10441810;28;20120;-77
2022/07/04 23:15:22;;;;;;;11.80;8.80;;;;;;;13.95;88.10;101938.06;10424028;28;20037;-76
2022/07/04 23:20:22;;;;;;;10.25;7.72;;;;;;;14.14;86.74;101944.25;10441683;28;20110;-77
2022/07/04 23:25:23;;;;;;;8.88;7.82;;;;;;;14.31;85.84;101943.38;10440394;28;20131;-76
2022/07/04 23:30:23;;;;;;;11.02;8.07;;;;;;;14.38;85.03;101944.59;10484435;28;20032;-77
2022/07/04 23:35:24;;;;;;;9.30;6.85;;;;;;;14.34;84.85;101945.28;10462360;28;20033;-76